Time;durP1;ratioP1;P1;durP2;ratioP2;P2;SDS_P1;SDS_P2;PMS_P1;PMS_P2;Temp;Humidity;BMP_temperature;BMP_pressure;BME280_temperature;BME280_humidity;BME280_pressure;Samples;Min_cycle;Max_cycle;Signal;HPM_P1;HPM_P2
2023/11/19 00:02:32;;;;;;;31.33;14.10;;;0.40;99.90;;;;;;4456544;27;657305;-69
2023/11/19 00:05:19;;;;;;;31.17;13.50;;;0.40;99.90;;;;;;4440042;27;656808;-69
2023/11/19 00:08:06;;;;;;;26.40;12.17;;;0.40;99.90;;;;;;4462089;27;656661;-69
2023/11/19 00:10:54;;;;;;;24.57;12.13;;;0.50;99.90;;;;;;4431555;27;656969;-69
2023/11/19 00:13:41;;;;;;;25.30;10.53;;;0.50;99.90;;;;;;4463983;27;657156;-69
2023/11/19 00:16:28;;;;;;;30.37;12.33;;;0.50;99.90;;;;;;4434677;27;656973;-69
2023/11/19 00:19:16;;;;;;;28.13;12.67;;;0.30;99.90;;;;;;4455778;27;657616;-69
2023/11/19 00:22:04;;;;;;;28.57;13.10;;;0.30;99.90;;;;;;4441438;27;656691;-69
2023/11/19 00:24:51;;;;;;;27.07;10.97;;;0.30;99.90;;;;;;4456349;27;655849;-69
2023/11/19 00:27:38;;;;;;;30.17;11.93;;;0.30;99.90;;;;;;4442279;27;656948;-69
2023/11/19 00:30:25;;;;;;;29.30;12.27;;;0.40;99.90;;;;;;4455714;27;656764;-69
2023/11/19 00:33:13;;;;;;;28.67;12.10;;;0.30;99.90;;;;;;4432817;28;656836;-69
2023/11/19 00:36:02;;;;;;;30.27;13.17;;;0.30;99.90;;;;;;4469445;27;656848;-69
2023/11/19 00:38:50;;;;;;;31.67;13.87;;;0.20;99.90;;;;;;4440944;27;657085;-69
2023/11/19 00:41:37;;;;;;;30.73;13.10;;;0.20;99.90;;;;;;4466673;27;656671;-69
2023/11/19 00:44:24;;;;;;;32.83;14.17;;;0.20;99.90;;;;;;4442770;27;656513;-69
2023/11/19 00:47:13;;;;;;;32.20;13.17;;;0.20;99.90;;;;;;4457076;27;657065;-70
2023/11/19 00:50:00;;;;;;;29.90;13.47;;;0.20;99.90;;;;;;4463838;27;657137;-70
2023/11/19 00:52:49;;;;;;;30.20;13.93;;;0.20;99.90;;;;;;4444612;27;657122;-69
2023/11/19 00:55:36;;;;;;;33.50;14.03;;;0.30;99.90;;;;;;4450286;27;656209;-70
2023/11/19 00:58:23;;;;;;;31.10;13.93;;;0.30;99.90;;;;;;4435637;28;656667;-69
2023/11/19 01:01:10;;;;;;;33.03;14.47;;;0.40;99.90;;;;;;4460851;28;657184;-69
2023/11/19 01:03:58;;;;;;;31.67;14.10;;;0.40;99.90;;;;;;4443208;27;656511;-69
2023/11/19 01:06:45;;;;;;;31.77;13.33;;;0.40;99.90;;;;;;4459741;28;657875;-70
2023/11/19 01:09:34;;;;;;;30.27;14.20;;;0.50;99.90;;;;;;4454040;27;656433;-69
2023/11/19 01:12:21;;;;;;;27.17;13.13;;;0.50;99.90;;;;;;4455430;28;656109;-69
2023/11/19 01:15:09;;;;;;;29.20;12.73;;;0.40;99.90;;;;;;4444214;27;657137;-69
2023/11/19 01:17:56;;;;;;;28.27;12.50;;;0.50;99.90;;;;;;4462427;28;656165;-69
2023/11/19 01:20:43;;;;;;;29.67;12.57;;;0.50;99.90;;;;;;4434366;28;656825;-69
2023/11/19 01:23:31;;;;;;;32.93;14.20;;;0.50;99.90;;;;;;4457260;27;657123;-69
2023/11/19 01:26:19;;;;;;;28.60;12.70;;;0.40;99.90;;;;;;4440692;27;656827;-70
2023/11/19 01:29:07;;;;;;;30.47;12.87;;;0.40;99.90;;;;;;4453830;27;657247;-70
2023/11/19 01:31:54;;;;;;;33.33;14.13;;;0.50;99.90;;;;;;4436574;28;656356;-69
2023/11/19 01:34:41;;;;;;;33.13;13.27;;;0.50;99.90;;;;;;4460830;27;657777;-69
2023/11/19 01:37:29;;;;;;;35.80;14.93;;;0.50;99.90;;;;;;4436070;27;656919;-69
2023/11/19 01:40:16;;;;;;;31.37;14.77;;;0.50;99.90;;;;;;4452111;28;657349;-70
2023/11/19 01:43:05;;;;;;;38.25;16.30;;;0.50;99.90;;;;;;4434102;27;656673;-69
2023/11/19 01:45:52;;;;;;;34.77;15.57;;;0.50;99.90;;;;;;4449945;27;656520;-70
2023/11/19 01:48:42;;;;;;;31.37;14.57;;;0.50;99.90;;;;;;4460885;27;657301;-70
2023/11/19 01:51:29;;;;;;;33.30;15.07;;;0.50;99.90;;;;;;4442248;27;656843;-70
2023/11/19 01:54:16;;;;;;;32.60;14.47;;;0.50;99.90;;;;;;4455696;27;655799;-70
2023/11/19 01:57:04;;;;;;;36.13;13.97;;;0.40;99.90;;;;;;4443263;27;656557;-70
2023/11/19 01:59:52;;;;;;;34.20;13.77;;;0.30;99.90;;;;;;4457563;28;656989;-69
2023/11/19 02:02:40;;;;;;;32.17;14.47;;;0.40;99.90;;;;;;4432718;27;656687;-69
2023/11/19 02:05:27;;;;;;;30.07;12.53;;;0.40;99.90;;;;;;4431935;27;657370;-69
2023/11/19 02:08:15;;;;;;;30.20;13.00;;;0.40;99.90;;;;;;4463415;27;656283;-69
2023/11/19 02:11:02;;;;;;;27.33;12.37;;;0.40;99.90;;;;;;4453398;28;656599;-69
2023/11/19 02:13:49;;;;;;;28.77;12.43;;;0.40;99.90;;;;;;4441733;28;656785;-69
2023/11/19 02:16:37;;;;;;;25.03;11.23;;;0.40;99.90;;;;;;4450854;28;658065;-70
2023/11/19 02:19:25;;;;;;;25.30;12.23;;;0.40;99.90;;;;;;4422628;28;657548;-69
2023/11/19 02:22:12;;;;;;;25.93;11.23;;;0.50;99.90;;;;;;4459241;28;656646;-69
2023/11/19 02:25:00;;;;;;;27.30;12.47;;;0.50;99.90;;;;;;4430053;27;657071;-69
2023/11/19 02:27:55;;;;;;;29.80;13.45;;;0.40;99.90;;;;;;4438461;28;656705;-69
2023/11/19 02:30:42;;;;;;;31.60;13.23;;;0.50;99.90;;;;;;4416785;27;656715;-69
2023/11/19 02:33:30;;;;;;;32.83;14.03;;;0.50;99.90;;;;;;4455171;27;656578;-69
2023/11/19 02:36:17;;;;;;;37.43;16.20;;;0.50;99.90;;;;;;4435661;27;656967;-69
2023/11/19 02:39:10;;;;;;;43.97;18.00;;;0.50;99.90;;;;;;4455516;28;656863;-69
2023/11/19 02:41:57;;;;;;;38.53;16.30;;;0.50;99.90;;;;;;4420348;28;656511;-69
2023/11/19 02:44:48;;;;;;;35.43;15.83;;;0.50;99.90;;;;;;4454081;28;656820;-69
2023/11/19 02:47:36;;;;;;;40.70;16.50;;;0.50;99.90;;;;;;4421979;28;656883;-69
2023/11/19 02:50:25;;;;;;;39.03;16.33;;;0.50;99.90;;;;;;4432351;27;656536;-70
2023/11/19 02:53:13;;;;;;;39.07;15.33;;;0.40;99.90;;;;;;4438393;28;656914;-70
2023/11/19 02:56:09;;;;;;;32.47;14.23;;;0.50;99.90;;;;;;4446571;28;656995;-69
2023/11/19 02:58:57;;;;;;;31.60;14.37;;;0.60;99.90;;;;;;4415331;28;657553;-70
2023/11/19 03:01:50;;;;;;;32.37;13.67;;;0.60;99.90;;;;;;4429657;28;656843;-69
2023/11/19 03:04:38;;;;;;;33.97;13.83;;;0.60;99.90;;;;;;4440536;27;657806;-70
2023/11/19 03:07:25;;;;;;;31.70;14.00;;;0.60;99.90;;;;;;4430027;28;657280;-69
2023/11/19 03:10:13;;;;;;;29.77;14.00;;;0.50;99.90;;;;;;4438779;27;656679;-70
2023/11/19 03:13:02;;;;;;;31.90;14.13;;;0.50;99.90;;;;;;4455342;28;657598;-70
2023/11/19 03:15:49;;;;;;;28.20;13.07;;;0.50;99.90;;;;;;4424268;28;657577;-70
2023/11/19 03:18:38;;;;;;;26.40;12.70;;;0.50;99.90;;;;;;4443734;28;656848;-70
2023/11/19 03:21:29;;;;;;;29.87;13.07;;;0.50;99.90;;;;;;4436871;28;656848;-70
2023/11/19 03:24:17;;;;;;;37.20;15.67;;;0.50;99.90;;;;;;4424141;28;656550;-69
2023/11/19 03:27:04;;;;;;;35.43;14.80;;;0.50;99.90;;;;;;4436735;28;657450;-70
2023/11/19 03:29:52;;;;;;;37.30;15.07;;;0.50;99.90;;;;;;4452993;28;656575;-69
2023/11/19 03:32:39;;;;;;;34.23;14.33;;;0.50;99.90;;;;;;4440405;28;657085;-69
2023/11/19 03:35:28;;;;;;;34.80;14.67;;;0.40;99.90;;;;;;4454501;28;657042;-69
2023/11/19 03:41:17;;;;;;;37.80;15.32;;;0.30;99.90;;;;;;4418740;28;656385;-70
2023/11/19 03:44:04;;;;;;;32.97;15.03;;;0.30;99.90;;;;;;4430226;28;656994;-70
2023/11/19 03:46:51;;;;;;;34.80;14.70;;;0.30;99.90;;;;;;4455699;28;657207;-69
2023/11/19 03:49:38;;;;;;;34.92;15.60;;;0.30;99.90;;;;;;4438972;28;656085;-70
2023/11/19 03:52:27;;;;;;;37.20;16.37;;;0.30;99.90;;;;;;4444249;28;657224;-70
2023/11/19 03:55:15;;;;;;;35.57;15.63;;;0.40;99.90;;;;;;4432745;28;657094;-69
2023/11/19 03:58:02;;;;;;;35.77;16.00;;;0.40;99.90;;;;;;4452933;28;657270;-69
2023/11/19 04:00:49;;;;;;;35.27;15.67;;;0.40;99.90;;;;;;4432772;28;656526;-70
2023/11/19 04:03:36;;;;;;;34.20;16.07;;;0.40;99.90;;;;;;4443952;28;656314;-69
2023/11/19 04:06:23;;;;;;;36.97;16.73;;;0.30;99.90;;;;;;4435594;28;656494;-70
2023/11/19 04:09:12;;;;;;;32.70;15.40;;;0.30;99.90;;;;;;4458890;28;656103;-70
2023/11/19 04:12:00;;;;;;;39.87;16.03;;;0.20;99.90;;;;;;4423320;28;657201;-69
2023/11/19 04:14:47;;;;;;;36.10;15.80;;;0.20;99.90;;;;;;4443484;28;657287;-70
2023/11/19 04:17:35;;;;;;;39.45;16.40;;;0.20;99.90;;;;;;4449940;28;656356;-69
2023/11/19 04:20:23;;;;;;;39.80;16.65;;;0.10;99.90;;;;;;4436325;28;656716;-70
2023/11/19 04:23:11;;;;;;;38.90;16.60;;;0.10;99.90;;;;;;4457991;28;657534;-70
2023/11/19 04:25:59;;;;;;;45.77;18.63;;;0.10;99.90;;;;;;4430752;28;656551;-70
2023/11/19 04:28:47;;;;;;;36.03;16.25;;;0.10;99.90;;;;;;4460226;28;656954;-70
2023/11/19 04:31:34;;;;;;;33.33;14.57;;;0.00;99.90;;;;;;4441215;28;656421;-70
2023/11/19 04:34:21;;;;;;;38.67;16.43;;;0.10;99.90;;;;;;4453796;28;656587;-70
2023/11/19 04:37:09;;;;;;;39.03;17.07;;;0.00;99.90;;;;;;4427467;27;656677;-69
2023/11/19 04:39:56;;;;;;;41.70;16.30;;;0.00;99.90;;;;;;4449826;28;656975;-69
2023/11/19 04:42:45;;;;;;;42.53;17.58;;;-0.10;99.90;;;;;;4450646;27;656422;-69
2023/11/19 04:45:33;;;;;;;42.03;17.27;;;-0.20;99.90;;;;;;4443609;28;657581;-70
2023/11/19 04:48:20;;;;;;;44.10;16.57;;;-0.20;99.90;;;;;;4457193;27;658595;-70
2023/11/19 04:51:09;;;;;;;42.30;17.70;;;-0.30;99.90;;;;;;4442245;27;657728;-69
2023/11/19 04:53:56;;;;;;;39.60;16.83;;;-0.30;99.90;;;;;;4457699;28;657516;-69
2023/11/19 04:56:46;;;;;;;38.00;15.77;;;-0.30;99.90;;;;;;4424877;28;657890;-70
2023/11/19 04:59:36;;;;;;;40.23;16.83;;;-0.40;99.90;;;;;;4432451;28;657979;-70
2023/11/19 05:02:24;;;;;;;43.07;17.43;;;-0.50;99.90;;;;;;4438791;27;657536;-70
2023/11/19 05:05:11;;;;;;;38.67;17.50;;;-0.50;99.90;;;;;;4454276;27;657901;-70
2023/11/19 05:07:59;;;;;;;40.97;16.87;;;-0.50;99.90;;;;;;4440781;27;657782;-70
2023/11/19 05:10:46;;;;;;;38.37;17.80;;;-0.60;99.90;;;;;;4463976;27;657940;-70
2023/11/19 05:13:33;;;;;;;43.27;17.60;;;-0.60;99.90;;;;;;4441454;28;658370;-70
2023/11/19 05:16:21;;;;;;;42.33;17.63;;;-0.60;99.90;;;;;;4449669;28;657427;-70
2023/11/19 05:19:09;;;;;;;46.47;18.20;;;-0.60;99.90;;;;;;4432106;27;658249;-70
2023/11/19 05:21:56;;;;;;;43.50;17.57;;;-0.60;99.90;;;;;;4460391;27;657722;-70
2023/11/19 05:24:44;;;;;;;44.90;17.53;;;-0.60;99.90;;;;;;4426789;27;658226;-70
2023/11/19 05:27:31;;;;;;;47.90;19.50;;;-0.60;99.90;;;;;;4445147;28;658022;-70
2023/11/19 05:30:18;;;;;;;49.70;19.87;;;-0.70;99.90;;;;;;4437470;27;657744;-70
2023/11/19 05:33:07;;;;;;;44.73;18.57;;;-0.70;99.90;;;;;;4462370;27;659980;-70
2023/11/19 05:35:55;;;;;;;42.73;18.37;;;-0.70;99.90;;;;;;4430593;27;658122;-70
2023/11/19 05:38:44;;;;;;;43.50;18.73;;;-0.60;99.90;;;;;;4456769;27;657562;-70
2023/11/19 05:41:31;;;;;;;46.67;19.20;;;-0.50;99.90;;;;;;4462361;27;657929;-70
2023/11/19 05:44:18;;;;;;;44.60;18.67;;;-0.50;99.90;;;;;;4428110;27;657612;-70
2023/11/19 05:47:06;;;;;;;45.70;17.60;;;-0.50;99.90;;;;;;4459924;28;657337;-70
2023/11/19 05:49:55;;;;;;;47.33;18.50;;;-0.60;99.90;;;;;;4436782;27;657932;-70
2023/11/19 05:52:43;;;;;;;47.53;17.95;;;-0.60;99.90;;;;;;4442028;27;657861;-70
2023/11/19 05:55:31;;;;;;;52.63;20.10;;;-0.60;99.90;;;;;;4440651;28;658235;-70
2023/11/19 05:58:18;;;;;;;46.57;18.70;;;-0.60;99.90;;;;;;4439759;27;657664;-70
2023/11/19 06:01:07;;;;;;;46.67;19.03;;;-0.50;99.90;;;;;;4441595;27;658409;-70
2023/11/19 06:03:54;;;;;;;50.20;17.77;;;-0.50;99.90;;;;;;4435993;27;657814;-70
2023/11/19 06:06:43;;;;;;;44.33;17.90;;;-0.40;99.90;;;;;;4456933;27;657831;-70
2023/11/19 06:09:30;;;;;;;46.00;18.87;;;-0.30;99.90;;;;;;4428122;27;658596;-70
2023/11/19 06:12:17;;;;;;;50.47;20.27;;;-0.30;99.90;;;;;;4451222;27;657695;-70
2023/11/19 06:15:06;;;;;;;50.57;19.87;;;-0.30;99.90;;;;;;4449910;27;658672;-70
2023/11/19 06:17:54;;;;;;;48.17;18.37;;;-0.20;99.90;;;;;;4430089;27;657368;-70
2023/11/19 06:20:42;;;;;;;56.53;20.53;;;-0.20;99.90;;;;;;4453780;28;657225;-70
2023/11/19 06:23:30;;;;;;;60.40;20.93;;;-0.20;99.90;;;;;;4420533;27;657844;-70
2023/11/19 06:26:18;;;;;;;51.73;19.70;;;-0.30;99.90;;;;;;4437069;27;657743;-70
2023/11/19 06:29:05;;;;;;;51.43;18.70;;;-0.20;99.90;;;;;;4457169;27;658033;-70
2023/11/19 06:31:52;;;;;;;48.43;19.07;;;-0.20;99.90;;;;;;4432676;28;658829;-70
2023/11/19 06:34:40;;;;;;;49.73;19.77;;;-0.10;99.90;;;;;;4459263;28;657838;-70
2023/11/19 06:37:27;;;;;;;52.77;19.60;;;-0.10;99.90;;;;;;4454434;27;657099;-70
2023/11/19 06:40:16;;;;;;;48.87;17.83;;;0.00;99.90;;;;;;4431708;28;657751;-70
2023/11/19 06:43:03;;;;;;;47.20;19.55;;;0.10;99.90;;;;;;4439261;28;656473;-70
2023/11/19 06:45:51;;;;;;;51.63;19.67;;;0.10;99.90;;;;;;4457128;27;657672;-69
2023/11/19 06:48:38;;;;;;;51.07;19.57;;;0.10;99.90;;;;;;4425099;28;657113;-69
2023/11/19 06:51:25;;;;;;;48.83;18.23;;;0.10;99.90;;;;;;4456346;27;657942;-70
2023/11/19 06:54:12;;;;;;;52.20;20.50;;;0.10;99.90;;;;;;4446414;27;656942;-70
2023/11/19 06:57:01;;;;;;;47.30;18.90;;;0.20;99.90;;;;;;4441821;28;657765;-70
2023/11/19 06:59:48;;;;;;;53.87;19.83;;;0.30;99.90;;;;;;4430040;27;656788;-70
2023/11/19 07:02:35;;;;;;;56.87;20.70;;;0.30;99.90;;;;;;4455706;27;656856;-70
2023/11/19 07:05:23;;;;;;;47.80;18.63;;;0.40;99.90;;;;;;4431477;27;656430;-69
2023/11/19 07:08:11;;;;;;;46.00;18.03;;;0.50;99.90;;;;;;4451671;28;657296;-70
2023/11/19 07:10:58;;;;;;;51.10;19.07;;;0.60;99.90;;;;;;4422972;28;657571;-70
2023/11/19 07:13:46;;;;;;;49.70;18.97;;;0.50;99.90;;;;;;4459465;28;657586;-70
2023/11/19 07:16:34;;;;;;;53.05;19.50;;;0.60;99.90;;;;;;4432783;28;656744;-69
2023/11/19 07:19:21;;;;;;;53.73;19.23;;;0.70;99.90;;;;;;4451114;28;656639;-69
2023/11/19 07:22:08;;;;;;;48.70;18.40;;;0.70;99.90;;;;;;4431368;28;656183;-70
2023/11/19 07:24:55;;;;;;;48.87;18.10;;;0.70;99.90;;;;;;4448197;28;658071;-69
2023/11/19 07:27:43;;;;;;;51.60;19.20;;;0.80;99.90;;;;;;4441186;28;656409;-69
2023/11/19 07:30:31;;;;;;;39.57;13.40;;;0.70;99.90;;;;;;4464015;28;659078;-70
2023/11/19 07:33:19;;;;;;;48.33;19.37;;;0.70;99.90;;;;;;4439518;28;657811;-69
2023/11/19 07:36:07;;;;;;;51.13;20.70;;;0.60;99.90;;;;;;4450370;28;656629;-68
2023/11/19 07:38:57;;;;;;;57.77;20.50;;;0.70;99.90;;;;;;4432175;28;657150;-68
2023/11/19 07:41:44;;;;;;;53.53;20.40;;;0.70;99.90;;;;;;4434499;28;658079;-68
2023/11/19 07:44:32;;;;;;;54.23;20.00;;;0.70;99.90;;;;;;4457137;28;656538;-69
2023/11/19 07:47:23;;;;;;;50.57;20.17;;;0.80;99.90;;;;;;4425999;28;657082;-69
2023/11/19 07:50:10;;;;;;;51.57;19.90;;;0.90;99.90;;;;;;4432566;28;656900;-68
2023/11/19 07:52:58;;;;;;;50.60;20.20;;;0.90;99.90;;;;;;4431037;28;656904;-69
2023/11/19 07:55:45;;;;;;;56.03;20.93;;;1.00;99.90;;;;;;4459684;28;657138;-68
2023/11/19 07:58:32;;;;;;;52.03;20.97;;;1.00;99.90;;;;;;4457101;28;656349;-68
2023/11/19 08:01:20;;;;;;;48.75;19.27;;;1.10;99.90;;;;;;4459814;28;657315;-68
2023/11/19 08:04:08;;;;;;;55.27;19.87;;;1.20;99.90;;;;;;4444746;28;656412;-68
2023/11/19 08:06:56;;;;;;;47.13;20.07;;;1.10;99.90;;;;;;4428511;28;657953;-68
2023/11/19 08:09:43;;;;;;;45.63;19.37;;;1.10;99.90;;;;;;4440432;28;657907;-69
2023/11/19 08:12:30;;;;;;;46.63;19.80;;;1.10;99.90;;;;;;4466077;27;657284;-69
2023/11/19 08:15:18;;;;;;;52.67;20.03;;;1.20;99.90;;;;;;4426732;28;656407;-69
2023/11/19 08:18:05;;;;;;;49.60;19.37;;;1.20;99.90;;;;;;4445679;27;658454;-68
2023/11/19 08:20:56;;;;;;;53.33;20.60;;;1.30;99.90;;;;;;4454300;27;656911;-69
2023/11/19 08:23:43;;;;;;;49.70;20.50;;;1.50;99.90;;;;;;4436407;27;657059;-69
2023/11/19 08:26:30;;;;;;;58.33;21.20;;;1.60;99.90;;;;;;4461789;27;657347;-69
2023/11/19 08:29:17;;;;;;;50.67;20.47;;;1.70;99.90;;;;;;4436530;28;657603;-69
2023/11/19 08:32:06;;;;;;;51.07;20.50;;;1.70;99.90;;;;;;4459773;27;656999;-69
2023/11/19 08:34:53;;;;;;;47.80;20.03;;;1.80;99.90;;;;;;4423020;28;657185;-68
2023/11/19 08:37:42;;;;;;;45.33;18.93;;;1.90;99.90;;;;;;4443883;28;657680;-68
2023/11/19 08:40:29;;;;;;;44.30;18.90;;;1.90;99.90;;;;;;4435787;27;656388;-68
2023/11/19 08:43:16;;;;;;;50.03;19.73;;;1.80;99.90;;;;;;4461187;27;656372;-68
2023/11/19 08:46:04;;;;;;;48.13;18.43;;;1.90;99.90;;;;;;4439693;28;656916;-68
2023/11/19 08:48:52;;;;;;;45.77;18.73;;;1.80;99.90;;;;;;4452303;27;656514;-67
2023/11/19 08:51:39;;;;;;;48.50;18.93;;;1.80;99.90;;;;;;4428215;27;656639;-68
2023/11/19 08:54:27;;;;;;;46.73;18.87;;;1.70;99.90;;;;;;4457644;27;656594;-68
2023/11/19 08:57:14;;;;;;;42.03;18.63;;;1.80;99.90;;;;;;4425931;28;656971;-68
2023/11/19 09:00:02;;;;;;;43.90;18.70;;;1.80;99.90;;;;;;4458089;28;656805;-68
2023/11/19 09:02:50;;;;;;;45.97;18.90;;;1.90;99.90;;;;;;4444162;28;656769;-68
2023/11/19 09:05:38;;;;;;;40.90;18.30;;;1.90;99.90;;;;;;4463448;28;656256;-68
2023/11/19 09:08:25;;;;;;;38.63;17.00;;;2.00;99.90;;;;;;4435059;27;657163;-68
2023/11/19 09:11:14;;;;;;;45.33;19.03;;;1.90;99.90;;;;;;4441426;28;656469;-69
2023/11/19 09:14:01;;;;;;;48.20;18.27;;;2.00;99.90;;;;;;4446446;28;656770;-68
2023/11/19 09:16:48;;;;;;;41.58;18.08;;;2.00;99.90;;;;;;4432289;27;656863;-68
2023/11/19 09:19:35;;;;;;;38.40;17.87;;;1.90;99.90;;;;;;4459951;28;657504;-68
2023/11/19 09:22:23;;;;;;;42.27;17.97;;;1.90;99.90;;;;;;4436216;27;656377;-70
2023/11/19 09:25:10;;;;;;;54.07;21.13;;;1.90;99.90;;;;;;4456033;27;658156;-70
2023/11/19 09:27:59;;;;;;;49.40;20.03;;;2.00;99.90;;;;;;4433942;27;656551;-70
2023/11/19 09:30:46;;;;;;;41.70;17.93;;;2.10;99.90;;;;;;4448702;27;657872;-70
2023/11/19 09:33:34;;;;;;;36.93;16.60;;;2.30;99.90;;;;;;4437638;27;657041;-71
2023/11/19 09:36:21;;;;;;;35.37;16.07;;;2.30;99.90;;;;;;4457942;27;657822;-70
2023/11/19 09:39:08;;;;;;;35.75;14.98;;;2.30;99.90;;;;;;4437935;27;656468;-70
2023/11/19 09:41:57;;;;;;;34.00;15.63;;;2.40;99.90;;;;;;4460566;27;657073;-70
2023/11/19 09:44:46;;;;;;;30.43;14.43;;;2.40;99.90;;;;;;4442617;27;657099;-70
2023/11/19 09:47:33;;;;;;;30.67;15.20;;;2.40;99.90;;;;;;4437851;28;656397;-70
2023/11/19 09:50:20;;;;;;;31.87;15.73;;;2.40;99.90;;;;;;4457733;27;657707;-70
2023/11/19 09:53:07;;;;;;;34.33;14.45;;;2.50;99.90;;;;;;4434651;28;656371;-71
2023/11/19 09:55:55;;;;;;;36.37;15.97;;;2.40;99.90;;;;;;4453543;28;657023;-70
2023/11/19 09:58:42;;;;;;;31.70;13.63;;;2.40;99.90;;;;;;4448594;28;657196;-70
2023/11/19 10:01:31;;;;;;;28.70;12.43;;;2.50;99.90;;;;;;4442734;27;657846;-70
2023/11/19 10:04:19;;;;;;;36.03;15.47;;;2.50;99.90;;;;;;4418204;28;656975;-71
2023/11/19 10:07:06;;;;;;;41.13;17.30;;;2.50;99.90;;;;;;4458276;28;656744;-70
2023/11/19 10:09:53;;;;;;;38.83;16.83;;;2.50;99.90;;;;;;4436363;27;656916;-70
2023/11/19 10:12:40;;;;;;;33.77;15.37;;;2.60;99.90;;;;;;4453655;27;657270;-70
2023/11/19 10:15:28;;;;;;;30.52;14.27;;;2.60;99.90;;;;;;4424448;28;656858;-70
2023/11/19 10:18:16;;;;;;;30.70;14.37;;;2.70;99.90;;;;;;4462867;27;657592;-70
2023/11/19 10:21:04;;;;;;;36.67;14.30;;;2.80;99.90;;;;;;4428511;28;656948;-70
2023/11/19 10:23:52;;;;;;;37.80;12.93;;;2.80;99.90;;;;;;4451786;28;656515;-70
2023/11/19 10:26:39;;;;;;;27.03;12.47;;;2.80;99.90;;;;;;4424027;28;657163;-70
2023/11/19 10:29:26;;;;;;;26.48;12.55;;;2.90;99.90;;;;;;4455643;28;656862;-70
2023/11/19 10:32:14;;;;;;;32.90;15.50;;;3.00;99.90;;;;;;4431885;28;656363;-70
2023/11/19 10:35:12;;;;;;;29.37;14.30;;;3.10;99.90;;;;;;4447331;28;656861;-70
2023/11/19 10:38:01;;;;;;;29.50;13.17;;;3.20;99.90;;;;;;4415606;27;656638;-70
2023/11/19 10:40:49;;;;;;;29.03;13.07;;;3.30;99.90;;;;;;4442708;27;656916;-70
2023/11/19 10:43:44;;;;;;;28.03;12.87;;;3.30;99.90;;;;;;4449020;28;656254;-69
2023/11/19 10:46:41;;;;;;;30.13;13.07;;;3.20;99.90;;;;;;4424686;27;656431;-69
2023/11/19 10:49:28;;;;;;;27.43;13.10;;;3.20;99.90;;;;;;4412422;27;657271;-70
2023/11/19 10:52:19;;;;;;;34.77;13.40;;;3.20;99.90;;;;;;4454994;27;657640;-69
2023/11/19 10:55:06;;;;;;;29.87;12.97;;;3.10;99.90;;;;;;4432725;27;657046;-69
2023/11/19 10:57:54;;;;;;;27.87;13.43;;;3.10;99.90;;;;;;4437984;27;657818;-70
2023/11/19 11:00:44;;;;;;;24.30;11.30;;;3.20;99.90;;;;;;4458758;27;656812;-69
2023/11/19 11:03:36;;;;;;;27.47;12.67;;;3.20;99.90;;;;;;4431734;27;656549;-69
2023/11/19 11:06:23;;;;;;;26.17;11.33;;;3.10;99.90;;;;;;4435902;27;656879;-69
2023/11/19 11:09:13;;;;;;;22.67;10.73;;;3.20;99.90;;;;;;4456639;27;656477;-69
2023/11/19 11:12:00;;;;;;;25.23;11.93;;;3.10;99.90;;;;;;4427067;28;657584;-69
2023/11/19 11:14:47;;;;;;;24.50;11.37;;;3.10;99.90;;;;;;4447887;28;656778;-70
2023/11/19 11:17:35;;;;;;;27.80;12.07;;;3.20;99.90;;;;;;4466311;27;657292;-69
2023/11/19 11:20:24;;;;;;;28.93;12.57;;;3.20;99.90;;;;;;4459565;28;656389;-70
2023/11/19 11:23:37;;;;;;;35.70;13.73;;;3.20;99.90;;;;;;4456356;28;656610;-68
2023/11/19 11:26:36;;;;;;;21.27;10.47;;;3.10;99.90;;;;;;4406193;28;657077;-69
2023/11/19 11:29:27;;;;;;;26.10;12.10;;;3.00;99.90;;;;;;4435713;28;656697;-69
2023/11/19 11:32:21;;;;;;;23.00;10.83;;;2.80;99.90;;;;;;4426020;28;657380;-69
2023/11/19 11:35:22;;;;;;;20.63;9.13;;;2.70;99.90;;;;;;4412438;28;657715;-69
2023/11/19 11:38:10;;;;;;;28.83;12.97;;;2.70;99.90;;;;;;4415165;28;656419;-70
2023/11/19 11:41:17;;;;;;;26.87;11.50;;;2.60;99.90;;;;;;4450337;28;656613;-69
2023/11/19 11:44:06;;;;;;;27.53;13.57;;;2.40;99.90;;;;;;4418172;27;657717;-69
2023/11/19 11:46:56;;;;;;;28.67;12.97;;;2.30;99.90;;;;;;4438345;28;656238;-69
2023/11/19 11:49:44;;;;;;;28.27;12.53;;;2.20;99.90;;;;;;4436672;27;656508;-69
2023/11/19 11:52:30;;;;;;;29.90;13.57;;;2.10;99.90;;;;;;4458632;27;657258;-69
2023/11/19 11:55:17;;;;;;;30.07;13.50;;;2.10;99.90;;;;;;4450747;27;656413;-69
2023/11/19 11:58:05;;;;;;;39.83;16.97;;;1.90;99.90;;;;;;4457008;27;658041;-69
2023/11/19 12:00:54;;;;;;;60.70;28.17;;;1.90;99.90;;;;;;4451753;27;657149;-70
2023/11/19 12:03:41;;;;;;;46.10;20.80;;;1.80;99.90;;;;;;4455297;28;656334;-69
2023/11/19 12:06:29;;;;;;;44.87;19.23;;;1.70;99.90;;;;;;4445940;27;656919;-69
2023/11/19 12:09:18;;;;;;;49.93;22.33;;;1.70;99.90;;;;;;4470768;27;656730;-69
2023/11/19 12:12:13;;;;;;;44.47;18.87;;;1.60;99.90;;;;;;4439661;27;656852;-69
2023/11/19 12:15:05;;;;;;;33.43;13.23;;;1.50;99.90;;;;;;4446834;27;656346;-70
2023/11/19 12:17:54;;;;;;;39.10;17.90;;;1.50;99.90;;;;;;4417549;27;656769;-69
2023/11/19 12:20:41;;;;;;;40.03;17.87;;;1.40;99.90;;;;;;4464810;28;656032;-70
2023/11/19 12:23:29;;;;;;;40.80;18.43;;;1.30;99.90;;;;;;4426431;27;656725;-70
2023/11/19 12:26:31;;;;;;;55.10;20.67;;;1.30;99.90;;;;;;4443926;27;656909;-69
2023/11/19 12:29:18;;;;;;;45.57;20.83;;;1.30;99.90;;;;;;4406008;27;656821;-69
2023/11/19 12:32:06;;;;;;;43.63;19.77;;;1.30;99.90;;;;;;4445891;27;657827;-70
2023/11/19 12:34:55;;;;;;;43.77;17.57;;;1.30;99.90;;;;;;4434115;27;656994;-69
2023/11/19 12:37:43;;;;;;;45.17;20.33;;;1.30;99.90;;;;;;4434513;28;657058;-69
2023/11/19 12:40:30;;;;;;;48.73;22.33;;;1.30;99.90;;;;;;4462681;27;656844;-69
2023/11/19 12:43:23;;;;;;;47.57;21.80;;;1.30;99.90;;;;;;4434181;28;656779;-70
2023/11/19 12:46:19;;;;;;;50.70;23.00;;;1.30;99.90;;;;;;4430368;27;657307;-69
2023/11/19 12:49:06;;;;;;;52.87;23.53;;;1.20;99.90;;;;;;4416640;28;657213;-69
2023/11/19 12:51:55;;;;;;;55.63;25.30;;;1.20;99.90;;;;;;4417802;28;656537;-70
2023/11/19 12:54:42;;;;;;;58.50;24.83;;;1.20;99.90;;;;;;4454068;28;656293;-70
2023/11/19 12:57:40;;;;;;;56.05;25.35;;;1.20;99.90;;;;;;4457482;27;657295;-70
2023/11/19 13:00:27;;;;;;;59.20;25.93;;;1.20;99.90;;;;;;4449127;27;657034;-69
2023/11/19 13:03:15;;;;;;;44.83;18.53;;;1.20;99.90;;;;;;4430739;27;656922;-69
2023/11/19 13:06:03;;;;;;;58.03;23.73;;;1.20;99.90;;;;;;4449564;27;656750;-70
2023/11/19 13:08:54;;;;;;;53.13;24.00;;;1.10;99.90;;;;;;4459079;27;657368;-70
2023/11/19 13:11:42;;;;;;;55.40;24.07;;;1.10;99.90;;;;;;4437184;27;656599;-70
2023/11/19 13:14:37;;;;;;;41.30;17.60;;;1.10;99.90;;;;;;4436928;27;656623;-70
2023/11/19 13:17:25;;;;;;;49.57;21.33;;;1.20;99.90;;;;;;4416102;27;657885;-70
2023/11/19 13:20:14;;;;;;;43.90;19.63;;;1.10;99.90;;;;;;4452781;27;656396;-70
2023/11/19 13:23:02;;;;;;;45.27;20.53;;;1.10;99.90;;;;;;4466131;27;656995;-69
2023/11/19 13:25:50;;;;;;;50.57;21.27;;;1.10;99.90;;;;;;4438367;27;657005;-69
2023/11/19 13:28:38;;;;;;;47.47;22.07;;;1.10;99.90;;;;;;4432900;27;656778;-70
2023/11/19 13:31:25;;;;;;;50.47;21.63;;;1.10;99.90;;;;;;4449678;27;656898;-69
2023/11/19 13:34:12;;;;;;;44.97;20.70;;;1.10;99.90;;;;;;4428528;28;656827;-69
2023/11/19 13:37:00;;;;;;;44.97;18.90;;;1.10;99.90;;;;;;4453400;27;656873;-69
2023/11/19 13:39:47;;;;;;;50.57;21.57;;;1.00;99.90;;;;;;4461922;27;656427;-69
2023/11/19 13:42:35;;;;;;;40.47;19.83;;;0.90;99.90;;;;;;4442624;27;657763;-69
2023/11/19 13:45:23;;;;;;;36.03;17.73;;;1.00;99.90;;;;;;4424543;28;657207;-69
2023/11/19 13:48:10;;;;;;;55.53;19.90;;;1.00;99.90;;;;;;4466146;27;657061;-69
2023/11/19 13:50:57;;;;;;;50.67;21.27;;;1.10;99.90;;;;;;4444226;27;656678;-69
2023/11/19 13:53:45;;;;;;;69.97;25.70;;;1.10;99.90;;;;;;4466308;27;657132;-69
2023/11/19 13:56:32;;;;;;;66.87;24.33;;;1.10;99.90;;;;;;4455337;27;656984;-69
2023/11/19 13:59:21;;;;;;;49.90;22.07;;;1.10;99.90;;;;;;4451324;28;657646;-69
2023/11/19 14:02:08;;;;;;;48.57;21.30;;;1.10;99.90;;;;;;4437991;28;656546;-69
2023/11/19 14:04:55;;;;;;;49.77;22.13;;;1.10;99.90;;;;;;4471906;27;657390;-70
2023/11/19 14:07:43;;;;;;;42.92;18.73;;;1.10;99.90;;;;;;4430854;27;656657;-70
2023/11/19 14:10:30;;;;;;;39.10;18.57;;;1.10;99.90;;;;;;4459677;28;657739;-71
2023/11/19 14:13:17;;;;;;;44.63;19.13;;;1.00;99.90;;;;;;4452183;27;657668;-71
2023/11/19 14:16:08;;;;;;;39.15;17.90;;;1.00;99.90;;;;;;4458631;28;656532;-71